sensor_id;sensor_type;location;lat;lon;timestamp;pressure;altitude;pressure_sealevel;temperature;humidity
4814;BME280;15375;48.540;9.268;2022-09-09T00:01:16;97027.94;;;13.78;100.00
4814;BME280;15375;48.540;9.268;2022-09-09T00:04:16;97024.75;;;13.80;100.00
4814;BME280;15375;48.540;9.268;2022-09-09T00:09:33;97024.63;;;13.83;100.00
4814;BME280;15375;48.540;9.268;2022-09-09T00:12:25;97013.53;;;13.65;100.00
4814;BME280;15375;48.540;9.268;2022-09-09T00:15:00;97014.34;;;13.75;100.00
4814;BME280;15375;48.540;9.268;2022-09-09T00:17:52;97000.72;;;13.62;100.00
4814;BME280;15375;48.540;9.268;2022-09-09T00:20:32;96985.50;;;13.61;100.00
4814;BME280;15375;48.540;9.268;2022-09-09T00:23:12;97000.66;;;13.75;100.00
4814;BME280;15375;48.540;9.268;2022-09-09T00:28:46;96997.78;;;13.78;100.00
4814;BME280;15375;48.540;9.268;2022-09-09T00:31:20;96986.63;;;13.73;100.00
4814;BME280;15375;48.540;9.268;2022-09-09T00:33:49;96995.16;;;13.75;100.00
4814;BME280;15375;48.540;9.268;2022-09-09T00:36:21;97004.38;;;13.81;100.00
4814;BME280;15375;48.540;9.268;2022-09-09T00:38:52;96994.22;;;13.69;100.00
4814;BME280;15375;48.540;9.268;2022-09-09T00:44:06;96991.81;;;13.71;100.00
4814;BME280;15375;48.540;9.268;2022-09-09T00:52:39;97005.50;;;13.71;100.00
4814;BME280;15375;48.540;9.268;2022-09-09T00:55:19;97014.69;;;13.77;100.00
4814;BME280;15375;48.540;9.268;2022-09-09T00:57:48;97007.22;;;13.77;100.00
4814;BME280;15375;48.540;9.268;2022-09-09T01:05:56;97005.09;;;13.60;100.00
4814;BME280;15375;48.540;9.268;2022-09-09T01:11:24;96986.88;;;13.44;100.00
4814;BME280;15375;48.540;9.268;2022-09-09T01:13:58;97012.06;;;13.52;100.00
4814;BME280;15375;48.540;9.268;2022-09-09T01:16:29;97002.56;;;13.43;100.00
4814;BME280;15375;48.540;9.268;2022-09-09T01:18:55;97004.03;;;13.57;100.00
4814;BME280;15375;48.540;9.268;2022-09-09T01:26:52;96992.97;;;13.26;100.00
4814;BME280;15375;48.540;9.268;2022-09-09T01:29:21;96993.19;;;13.19;100.00
4814;BME280;15375;48.540;9.268;2022-09-09T01:34:20;97008.19;;;13.27;100.00
4814;BME280;15375;48.540;9.268;2022-09-09T01:36:56;96995.03;;;13.22;100.00
4814;BME280;15375;48.540;9.268;2022-09-09T01:39:22;96996.91;;;13.25;100.00
4814;BME280;15375;48.540;9.268;2022-09-09T01:41:48;97001.63;;;13.25;100.00
4814;BME280;15375;48.540;9.268;2022-09-09T01:44:14;97012.00;;;13.30;100.00
4814;BME280;15375;48.540;9.268;2022-09-09T01:46:39;97003.81;;;13.17;100.00
4814;BME280;15375;48.540;9.268;2022-09-09T01:49:06;96999.69;;;13.13;100.00
4814;BME280;15375;48.540;9.268;2022-09-09T01:51:34;97001.97;;;13.14;100.00
4814;BME280;15375;48.540;9.268;2022-09-09T01:54:00;97016.97;;;13.10;100.00
4814;BME280;15375;48.540;9.268;2022-09-09T01:59:02;97033.63;;;13.03;100.00
4814;BME280;15375;48.540;9.268;2022-09-09T02:06:56;97053.78;;;12.84;100.00
4814;BME280;15375;48.540;9.268;2022-09-09T02:09:23;97045.13;;;12.72;100.00
4814;BME280;15375;48.540;9.268;2022-09-09T02:11:59;97021.84;;;12.68;100.00
4814;BME280;15375;48.540;9.268;2022-09-09T02:14:36;97032.31;;;12.82;100.00
4814;BME280;15375;48.540;9.268;2022-09-09T02:17:11;97028.06;;;12.94;100.00
4814;BME280;15375;48.540;9.268;2022-09-09T02:19:46;97012.38;;;12.81;100.00
4814;BME280;15375;48.540;9.268;2022-09-09T02:22:16;97018.22;;;12.84;100.00
4814;BME280;15375;48.540;9.268;2022-09-09T02:24:42;97009.56;;;12.85;100.00
4814;BME280;15375;48.540;9.268;2022-09-09T02:27:08;97023.47;;;12.91;100.00
4814;BME280;15375;48.540;9.268;2022-09-09T02:29:38;97037.47;;;12.80;100.00
4814;BME280;15375;48.540;9.268;2022-09-09T02:32:09;97035.59;;;12.77;100.00
4814;BME280;15375;48.540;9.268;2022-09-09T02:34:42;97016.91;;;12.63;100.00
4814;BME280;15375;48.540;9.268;2022-09-09T02:37:09;97032.78;;;12.68;100.00
4814;BME280;15375;48.540;9.268;2022-09-09T02:39:35;97033.09;;;12.70;100.00
4814;BME280;15375;48.540;9.268;2022-09-09T02:42:01;97044.69;;;12.74;100.00
4814;BME280;15375;48.540;9.268;2022-09-09T02:44:29;97045.91;;;12.73;100.00
4814;BME280;15375;48.540;9.268;2022-09-09T02:50:06;97046.53;;;12.90;100.00
4814;BME280;15375;48.540;9.268;2022-09-09T02:57:47;97032.97;;;12.99;100.00
4814;BME280;15375;48.540;9.268;2022-09-09T03:00:13;97013.63;;;12.80;100.00
4814;BME280;15375;48.540;9.268;2022-09-09T03:02:39;97025.31;;;12.94;100.00
4814;BME280;15375;48.540;9.268;2022-09-09T03:05:05;97019.19;;;12.90;100.00
4814;BME280;15375;48.540;9.268;2022-09-09T03:07:31;97015.13;;;12.94;100.00
4814;BME280;15375;48.540;9.268;2022-09-09T03:09:56;97028.91;;;13.03;100.00
4814;BME280;15375;48.540;9.268;2022-09-09T03:12:23;97024.78;;;13.11;100.00
4814;BME280;15375;48.540;9.268;2022-09-09T03:14:48;97027.84;;;13.13;100.00
4814;BME280;15375;48.540;9.268;2022-09-09T03:17:15;97035.56;;;13.27;100.00
4814;BME280;15375;48.540;9.268;2022-09-09T03:19:40;97015.75;;;13.23;100.00
4814;BME280;15375;48.540;9.268;2022-09-09T03:22:06;97019.78;;;13.31;100.00
4814;BME280;15375;48.540;9.268;2022-09-09T03:24:31;97027.31;;;13.40;100.00
4814;BME280;15375;48.540;9.268;2022-09-09T03:26:57;97033.00;;;13.46;100.00
4814;BME280;15375;48.540;9.268;2022-09-09T03:29:22;97038.44;;;13.58;100.00
4814;BME280;15375;48.540;9.268;2022-09-09T03:31:47;97043.88;;;13.36;100.00
4814;BME280;15375;48.540;9.268;2022-09-09T03:34:13;97036.56;;;13.33;100.00
4814;BME280;15375;48.540;9.268;2022-09-09T03:36:39;97020.78;;;13.25;100.00
4814;BME280;15375;48.540;9.268;2022-09-09T03:39:05;97035.78;;;13.33;100.00
4814;BME280;15375;48.540;9.268;2022-09-09T03:41:31;97040.13;;;13.43;100.00
4814;BME280;15375;48.540;9.268;2022-09-09T03:43:56;97049.44;;;13.46;100.00
4814;BME280;15375;48.540;9.268;2022-09-09T03:46:23;97054.69;;;13.53;100.00
4814;BME280;15375;48.540;9.268;2022-09-09T03:48:49;97038.81;;;13.48;100.00
4814;BME280;15375;48.540;9.268;2022-09-09T03:51:14;97037.28;;;13.47;100.00
4814;BME280;15375;48.540;9.268;2022-09-09T03:53:41;97039.69;;;13.44;100.00
4814;BME280;15375;48.540;9.268;2022-09-09T03:56:06;97029.28;;;13.39;100.00
4814;BME280;15375;48.540;9.268;2022-09-09T03:58:33;97019.34;;;13.33;100.00
4814;BME280;15375;48.540;9.268;2022-09-09T04:01:07;97018.72;;;13.29;100.00
4814;BME280;15375;48.540;9.268;2022-09-09T04:03:34;97007.94;;;13.34;100.00
4814;BME280;15375;48.540;9.268;2022-09-09T04:06:00;97016.69;;;13.42;100.00
4814;BME280;15375;48.540;9.268;2022-09-09T04:08:27;97014.59;;;13.46;100.00
4814;BME280;15375;48.540;9.268;2022-09-09T04:10:52;97019.72;;;13.57;100.00
4814;BME280;15375;48.540;9.268;2022-09-09T04:13:18;97010.16;;;13.61;100.00
4814;BME280;15375;48.540;9.268;2022-09-09T04:15:51;97024.22;;;13.72;100.00
4814;BME280;15375;48.540;9.268;2022-09-09T04:18:16;97023.81;;;13.74;100.00
4814;BME280;15375;48.540;9.268;2022-09-09T04:20:41;97016.34;;;13.74;100.00
4814;BME280;15375;48.540;9.268;2022-09-09T04:23:08;97025.41;;;13.84;100.00
4814;BME280;15375;48.540;9.268;2022-09-09T04:25:34;97016.88;;;13.82;100.00
4814;BME280;15375;48.540;9.268;2022-09-09T04:27:59;97010.16;;;13.83;100.00
4814;BME280;15375;48.540;9.268;2022-09-09T04:30:25;97014.28;;;13.87;100.00
4814;BME280;15375;48.540;9.268;2022-09-09T04:32:50;97001.41;;;13.75;100.00
4814;BME280;15375;48.540;9.268;2022-09-09T04:35:16;96999.06;;;13.65;100.00
4814;BME280;15375;48.540;9.268;2022-09-09T04:37:42;97019.09;;;13.74;100.00
4814;BME280;15375;48.540;9.268;2022-09-09T04:40:08;97027.44;;;13.71;100.00
4814;BME280;15375;48.540;9.268;2022-09-09T04:42:35;97033.22;;;13.73;100.00
4814;BME280;15375;48.540;9.268;2022-09-09T04:45:01;97005.03;;;13.51;100.00
4814;BME280;15375;48.540;9.268;2022-09-09T04:47:26;97037.75;;;13.67;100.00
4814;BME280;15375;48.540;9.268;2022-09-09T04:49:52;97019.50;;;13.51;100.00
4814;BME280;15375;48.540;9.268;2022-09-09T04:52:19;97039.84;;;13.63;100.00
4814;BME280;15375;48.540;9.268;2022-09-09T04:54:45;97029.97;;;13.65;100.00
4814;BME280;15375;48.540;9.268;2022-09-09T04:57:10;97013.97;;;13.64;100.00
4814;BME280;15375;48.540;9.268;2022-09-09T04:59:36;97022.41;;;13.69;100.00
4814;BME280;15375;48.540;9.268;2022-09-09T05:02:03;97009.50;;;13.57;100.00
4814;BME280;15375;48.540;9.268;2022-09-09T05:04:29;97014.03;;;13.51;100.00
4814;BME280;15375;48.540;9.268;2022-09-09T05:06:54;97039.28;;;13.68;100.00
4814;BME280;15375;48.540;9.268;2022-09-09T05:09:20;97038.41;;;13.71;100.00
4814;BME280;15375;48.540;9.268;2022-09-09T05:11:45;97033.53;;;13.75;100.00
4814;BME280;15375;48.540;9.268;2022-09-09T05:14:11;97007.09;;;13.59;100.00
4814;BME280;15375;48.540;9.268;2022-09-09T05:16:37;97021.31;;;13.67;100.00
4814;BME280;15375;48.540;9.268;2022-09-09T05:19:02;97017.34;;;13.68;100.00
4814;BME280;15375;48.540;9.268;2022-09-09T05:21:28;97002.03;;;13.58;100.00
4814;BME280;15375;48.540;9.268;2022-09-09T05:23:56;97031.06;;;13.68;100.00
4814;BME280;15375;48.540;9.268;2022-09-09T05:26:22;97028.78;;;13.66;100.00
4814;BME280;15375;48.540;9.268;2022-09-09T05:28:48;97045.69;;;13.86;100.00
4814;BME280;15375;48.540;9.268;2022-09-09T05:31:15;97067.91;;;14.10;100.00
4814;BME280;15375;48.540;9.268;2022-09-09T05:33:43;97055.81;;;14.20;100.00
4814;BME280;15375;48.540;9.268;2022-09-09T05:36:12;97047.66;;;14.29;100.00
4814;BME280;15375;48.540;9.268;2022-09-09T05:38:39;97054.84;;;14.36;100.00
4814;BME280;15375;48.540;9.268;2022-09-09T05:41:05;97025.28;;;14.09;100.00
4814;BME280;15375;48.540;9.268;2022-09-09T05:43:31;97068.88;;;14.16;100.00
4814;BME280;15375;48.540;9.268;2022-09-09T05:46:06;97049.63;;;14.07;100.00
4814;BME280;15375;48.540;9.268;2022-09-09T05:48:44;97069.66;;;14.38;100.00
4814;BME280;15375;48.540;9.268;2022-09-09T05:51:16;97049.25;;;14.39;100.00
4814;BME280;15375;48.540;9.268;2022-09-09T05:53:43;97067.22;;;14.62;100.00
4814;BME280;15375;48.540;9.268;2022-09-09T05:56:17;97070.63;;;14.75;100.00
4814;BME280;15375;48.540;9.268;2022-09-09T05:58:43;97042.72;;;14.77;100.00
4814;BME280;15375;48.540;9.268;2022-09-09T06:01:11;97078.81;;;15.06;100.00
4814;BME280;15375;48.540;9.268;2022-09-09T06:03:38;97066.97;;;15.27;100.00
4814;BME280;15375;48.540;9.268;2022-09-09T06:06:07;97069.47;;;15.43;100.00
4814;BME280;15375;48.540;9.268;2022-09-09T06:08:38;97053.13;;;16.21;100.00
4814;BME280;15375;48.540;9.268;2022-09-09T06:11:06;97071.16;;;18.33;92.96
4814;BME280;15375;48.540;9.268;2022-09-09T06:13:32;97061.81;;;18.45;84.73
4814;BME280;15375;48.540;9.268;2022-09-09T06:15:58;97050.69;;;18.40;83.72
4814;BME280;15375;48.540;9.268;2022-09-09T06:18:24;97060.13;;;17.95;86.03
4814;BME280;15375;48.540;9.268;2022-09-09T06:21:01;97057.22;;;17.75;88.02
4814;BME280;15375;48.540;9.268;2022-09-09T06:23:28;97059.41;;;17.71;90.87
4814;BME280;15375;48.540;9.268;2022-09-09T06:26:05;97053.63;;;18.07;92.93
4814;BME280;15375;48.540;9.268;2022-09-09T06:28:32;97058.31;;;19.58;81.48
4814;BME280;15375;48.540;9.268;2022-09-09T06:31:02;97060.38;;;19.43;82.50
4814;BME280;15375;48.540;9.268;2022-09-09T06:33:39;97062.13;;;19.41;83.75
4814;BME280;15375;48.540;9.268;2022-09-09T06:36:14;97066.50;;;19.33;84.27
4814;BME280;15375;48.540;9.268;2022-09-09T06:38:41;97061.19;;;18.80;85.10
4814;BME280;15375;48.540;9.268;2022-09-09T06:41:08;97057.34;;;18.33;89.28
4814;BME280;15375;48.540;9.268;2022-09-09T06:43:34;97070.88;;;18.90;88.22
4814;BME280;15375;48.540;9.268;2022-09-09T06:46:13;97061.66;;;19.28;85.67
4814;BME280;15375;48.540;9.268;2022-09-09T06:48:40;97047.66;;;19.51;81.69
4814;BME280;15375;48.540;9.268;2022-09-09T06:51:15;97062.22;;;20.12;77.58
4814;BME280;15375;48.540;9.268;2022-09-09T06:53:42;97068.47;;;19.67;76.91
4814;BME280;15375;48.540;9.268;2022-09-09T06:58:37;97061.88;;;19.09;80.13
4814;BME280;15375;48.540;9.268;2022-09-09T07:01:08;97064.50;;;19.33;80.06
4814;BME280;15375;48.540;9.268;2022-09-09T07:03:34;97052.41;;;19.16;79.68
4814;BME280;15375;48.540;9.268;2022-09-09T07:06:00;97042.22;;;19.22;80.65
4814;BME280;15375;48.540;9.268;2022-09-09T07:08:26;97057.81;;;19.40;78.79
4814;BME280;15375;48.540;9.268;2022-09-09T07:10:52;97070.78;;;19.48;81.75
4814;BME280;15375;48.540;9.268;2022-09-09T07:13:26;97063.56;;;19.22;82.54
4814;BME280;15375;48.540;9.268;2022-09-09T07:15:52;97066.66;;;19.09;82.48
4814;BME280;15375;48.540;9.268;2022-09-09T07:18:20;97062.06;;;19.21;84.76
4814;BME280;15375;48.540;9.268;2022-09-09T07:20:53;97049.25;;;19.38;85.28
4814;BME280;15375;48.540;9.268;2022-09-09T07:23:19;97070.78;;;19.89;84.74
4814;BME280;15375;48.540;9.268;2022-09-09T07:25:45;97055.78;;;20.21;80.12
4814;BME280;15375;48.540;9.268;2022-09-09T07:28:11;97050.16;;;20.61;78.91
4814;BME280;15375;48.540;9.268;2022-09-09T07:30:36;97059.50;;;20.38;78.46
4814;BME280;15375;48.540;9.268;2022-09-09T07:33:02;97047.44;;;20.72;77.35
4814;BME280;15375;48.540;9.268;2022-09-09T07:35:28;97054.81;;;21.07;77.80
4814;BME280;15375;48.540;9.268;2022-09-09T07:37:54;97058.91;;;21.17;73.92
4814;BME280;15375;48.540;9.268;2022-09-09T07:40:19;97051.44;;;21.34;74.75
4814;BME280;15375;48.540;9.268;2022-09-09T07:42:47;97063.22;;;21.23;76.37
4814;BME280;15375;48.540;9.268;2022-09-09T07:45:12;97064.19;;;21.57;73.24
4814;BME280;15375;48.540;9.268;2022-09-09T07:47:38;97078.50;;;21.50;73.63
4814;BME280;15375;48.540;9.268;2022-09-09T07:50:03;97074.25;;;22.02;72.36
4814;BME280;15375;48.540;9.268;2022-09-09T07:52:29;97067.88;;;21.85;71.55
4814;BME280;15375;48.540;9.268;2022-09-09T07:54:54;97073.94;;;21.89;69.41
4814;BME280;15375;48.540;9.268;2022-09-09T07:57:21;97083.91;;;21.70;68.36
4814;BME280;15375;48.540;9.268;2022-09-09T07:59:46;97079.69;;;20.70;73.00
4814;BME280;15375;48.540;9.268;2022-09-09T08:02:12;97078.25;;;20.80;72.81
4814;BME280;15375;48.540;9.268;2022-09-09T08:04:37;97079.91;;;20.97;69.18
4814;BME280;15375;48.540;9.268;2022-09-09T08:07:03;97085.63;;;21.56;68.50
4814;BME280;15375;48.540;9.268;2022-09-09T08:09:28;97089.84;;;21.89;67.85
4814;BME280;15375;48.540;9.268;2022-09-09T08:11:55;97086.38;;;21.51;67.64
4814;BME280;15375;48.540;9.268;2022-09-09T08:14:22;97076.69;;;21.36;68.35
4814;BME280;15375;48.540;9.268;2022-09-09T08:16:49;97109.94;;;21.30;68.81
4814;BME280;15375;48.540;9.268;2022-09-09T08:19:15;97088.53;;;20.74;70.33
4814;BME280;15375;48.540;9.268;2022-09-09T08:21:41;97107.81;;;21.14;72.10
4814;BME280;15375;48.540;9.268;2022-09-09T08:24:08;97110.44;;;21.29;70.98
4814;BME280;15375;48.540;9.268;2022-09-09T08:26:40;97101.09;;;21.26;70.63
4814;BME280;15375;48.540;9.268;2022-09-09T08:29:08;97085.28;;;20.75;72.72
4814;BME280;15375;48.540;9.268;2022-09-09T08:31:36;97107.91;;;20.68;72.13
4814;BME280;15375;48.540;9.268;2022-09-09T08:34:02;97111.91;;;21.24;72.83
4814;BME280;15375;48.540;9.268;2022-09-09T08:36:34;97116.63;;;21.55;71.92
4814;BME280;15375;48.540;9.268;2022-09-09T08:39:01;97108.94;;;21.02;72.06
4814;BME280;15375;48.540;9.268;2022-09-09T08:53:09;97105.78;;;23.08;65.01
4814;BME280;15375;48.540;9.268;2022-09-09T08:55:57;97095.91;;;23.02;62.65
4814;BME280;15375;48.540;9.268;2022-09-09T08:58:32;97108.47;;;22.58;63.17
4814;BME280;15375;48.540;9.268;2022-09-09T09:09:12;97105.53;;;23.28;59.68
4814;BME280;15375;48.540;9.268;2022-09-09T09:11:48;97107.06;;;22.85;61.91
4814;BME280;15375;48.540;9.268;2022-09-09T09:14:21;97101.25;;;22.83;62.90
4814;BME280;15375;48.540;9.268;2022-09-09T09:19:30;97092.19;;;24.01;57.91
4814;BME280;15375;48.540;9.268;2022-09-09T09:22:19;97088.75;;;24.77;54.68
4814;BME280;15375;48.540;9.268;2022-09-09T09:24:55;97099.38;;;24.84;54.97
4814;BME280;15375;48.540;9.268;2022-09-09T09:27:34;97092.88;;;24.24;56.09
4814;BME280;15375;48.540;9.268;2022-09-09T09:30:21;97091.78;;;24.84;55.08
4814;BME280;15375;48.540;9.268;2022-09-09T09:32:54;97095.38;;;24.73;55.62
4814;BME280;15375;48.540;9.268;2022-09-09T09:35:20;97078.03;;;24.92;53.74
4814;BME280;15375;48.540;9.268;2022-09-09T09:37:46;97082.97;;;25.04;52.87
4814;BME280;15375;48.540;9.268;2022-09-09T09:40:19;97080.78;;;24.97;52.45
4814;BME280;15375;48.540;9.268;2022-09-09T09:42:59;97085.63;;;23.93;54.17
4814;BME280;15375;48.540;9.268;2022-09-09T09:45:34;97097.16;;;23.45;54.20
4814;BME280;15375;48.540;9.268;2022-09-09T09:48:03;97074.19;;;23.06;55.31
4814;BME280;15375;48.540;9.268;2022-09-09T09:50:30;97088.06;;;23.28;55.49
4814;BME280;15375;48.540;9.268;2022-09-09T09:53:04;97084.19;;;23.81;53.88
4814;BME280;15375;48.540;9.268;2022-09-09T09:55:31;97073.97;;;24.00;53.82
4814;BME280;15375;48.540;9.268;2022-09-09T09:58:05;97073.38;;;24.64;53.64
4814;BME280;15375;48.540;9.268;2022-09-09T10:00:32;97076.81;;;24.82;53.36
4814;BME280;15375;48.540;9.268;2022-09-09T10:03:00;97054.47;;;25.17;51.81
4814;BME280;15375;48.540;9.268;2022-09-09T10:05:30;97063.50;;;25.23;51.00
4814;BME280;15375;48.540;9.268;2022-09-09T10:08:20;97065.31;;;25.20;48.57
4814;BME280;15375;48.540;9.268;2022-09-09T10:11:27;97068.03;;;23.52;50.59
4814;BME280;15375;48.540;9.268;2022-09-09T10:19:26;97062.00;;;23.42;51.37
4814;BME280;15375;48.540;9.268;2022-09-09T10:21:56;97075.19;;;22.97;53.82
4814;BME280;15375;48.540;9.268;2022-09-09T10:24:40;97062.69;;;23.65;53.87
4814;BME280;15375;48.540;9.268;2022-09-09T10:30:20;97037.56;;;24.39;51.13
4814;BME280;15375;48.540;9.268;2022-09-09T10:38:44;97046.59;;;24.04;51.29
4814;BME280;15375;48.540;9.268;2022-09-09T10:41:15;97040.53;;;24.00;50.58
4814;BME280;15375;48.540;9.268;2022-09-09T10:44:12;97052.50;;;24.41;49.65
4814;BME280;15375;48.540;9.268;2022-09-09T10:52:40;97044.03;;;24.88;47.43
4814;BME280;15375;48.540;9.268;2022-09-09T10:55:20;97043.34;;;24.82;48.09
4814;BME280;15375;48.540;9.268;2022-09-09T10:57:52;97039.41;;;24.60;46.68
4814;BME280;15375;48.540;9.268;2022-09-09T11:03:01;97017.47;;;25.11;43.78
4814;BME280;15375;48.540;9.268;2022-09-09T11:05:31;97024.44;;;24.99;43.41
4814;BME280;15375;48.540;9.268;2022-09-09T11:08:04;97018.72;;;24.50;44.87
4814;BME280;15375;48.540;9.268;2022-09-09T11:11:08;97019.25;;;24.49;44.30
4814;BME280;15375;48.540;9.268;2022-09-09T11:13:46;97032.22;;;25.06;45.54
4814;BME280;15375;48.540;9.268;2022-09-09T11:16:42;97020.97;;;25.65;44.61
4814;BME280;15375;48.540;9.268;2022-09-09T11:19:16;97032.34;;;24.95;45.02
4814;BME280;15375;48.540;9.268;2022-09-09T11:21:49;97024.47;;;23.71;46.76
4814;BME280;15375;48.540;9.268;2022-09-09T11:27:00;97028.81;;;24.18;46.97
4814;BME280;15375;48.540;9.268;2022-09-09T11:30:02;97033.34;;;24.27;46.81
4814;BME280;15375;48.540;9.268;2022-09-09T11:40:38;97062.84;;;21.41;58.08
4814;BME280;15375;48.540;9.268;2022-09-09T11:43:10;97094.66;;;21.09;61.10
4814;BME280;15375;48.540;9.268;2022-09-09T11:45:39;97073.56;;;20.60;63.54
4814;BME280;15375;48.540;9.268;2022-09-09T11:48:05;97074.25;;;21.49;61.77
4814;BME280;15375;48.540;9.268;2022-09-09T11:50:57;97077.28;;;21.99;55.95
4814;BME280;15375;48.540;9.268;2022-09-09T11:53:23;97069.41;;;21.92;57.67
4814;BME280;15375;48.540;9.268;2022-09-09T11:58:27;97080.41;;;22.40;55.45
4814;BME280;15375;48.540;9.268;2022-09-09T12:00:57;97062.53;;;23.07;55.25
4814;BME280;15375;48.540;9.268;2022-09-09T12:03:43;97072.28;;;23.75;50.86
4814;BME280;15375;48.540;9.268;2022-09-09T12:06:25;97063.25;;;23.52;50.29
4814;BME280;15375;48.540;9.268;2022-09-09T12:08:56;97076.69;;;23.20;51.77
4814;BME280;15375;48.540;9.268;2022-09-09T12:11:24;97056.94;;;22.57;51.90
4814;BME280;15375;48.540;9.268;2022-09-09T12:13:55;97067.81;;;22.55;52.11
4814;BME280;15375;48.540;9.268;2022-09-09T12:16:47;97077.44;;;22.99;52.02
4814;BME280;15375;48.540;9.268;2022-09-09T12:19:18;97050.88;;;23.31;48.33
4814;BME280;15375;48.540;9.268;2022-09-09T12:25:15;97061.94;;;23.64;50.91
4814;BME280;15375;48.540;9.268;2022-09-09T12:28:09;97053.19;;;24.01;51.69
4814;BME280;15375;48.540;9.268;2022-09-09T12:31:00;97059.13;;;23.75;49.53
4814;BME280;15375;48.540;9.268;2022-09-09T12:33:37;97041.75;;;23.30;49.82
4814;BME280;15375;48.540;9.268;2022-09-09T12:36:05;97041.72;;;23.53;51.06
4814;BME280;15375;48.540;9.268;2022-09-09T12:38:39;97025.88;;;23.94;46.96
4814;BME280;15375;48.540;9.268;2022-09-09T12:41:04;97036.19;;;24.04;49.53
4814;BME280;15375;48.540;9.268;2022-09-09T12:43:30;97039.88;;;23.77;49.45
4814;BME280;15375;48.540;9.268;2022-09-09T12:46:02;97025.34;;;24.01;48.78
4814;BME280;15375;48.540;9.268;2022-09-09T12:48:32;97048.50;;;23.74;50.19
4814;BME280;15375;48.540;9.268;2022-09-09T12:50:59;97036.66;;;22.12;53.50
4814;BME280;15375;48.540;9.268;2022-09-09T12:56:00;97024.59;;;23.15;51.48
4814;BME280;15375;48.540;9.268;2022-09-09T12:58:28;97035.69;;;23.26;51.86
4814;BME280;15375;48.540;9.268;2022-09-09T13:00:58;97041.50;;;23.39;51.87
4814;BME280;15375;48.540;9.268;2022-09-09T13:03:25;97043.00;;;23.35;49.50
4814;BME280;15375;48.540;9.268;2022-09-09T13:05:51;97038.41;;;23.65;50.72
4814;BME280;15375;48.540;9.268;2022-09-09T13:08:17;97042.75;;;23.44;49.68
4814;BME280;15375;48.540;9.268;2022-09-09T13:10:57;97036.25;;;22.86;50.24
4814;BME280;15375;48.540;9.268;2022-09-09T13:13:36;97028.63;;;23.09;48.75
4814;BME280;15375;48.540;9.268;2022-09-09T13:16:03;97034.22;;;22.98;48.08
4814;BME280;15375;48.540;9.268;2022-09-09T13:18:33;97017.47;;;23.36;47.21
4814;BME280;15375;48.540;9.268;2022-09-09T13:20:59;97031.44;;;22.81;47.77
4814;BME280;15375;48.540;9.268;2022-09-09T13:23:36;97023.63;;;22.63;47.51
4814;BME280;15375;48.540;9.268;2022-09-09T13:28:31;97019.03;;;23.15;47.78
4814;BME280;15375;48.540;9.268;2022-09-09T13:31:03;97021.78;;;23.43;50.67
4814;BME280;15375;48.540;9.268;2022-09-09T13:36:03;97023.06;;;23.14;48.22
4814;BME280;15375;48.540;9.268;2022-09-09T13:38:32;97005.91;;;22.66;48.76
4814;BME280;15375;48.540;9.268;2022-09-09T13:41:19;96998.06;;;22.53;50.38
4814;BME280;15375;48.540;9.268;2022-09-09T13:43:46;97012.22;;;22.61;50.12
4814;BME280;15375;48.540;9.268;2022-09-09T13:46:35;97019.53;;;22.42;49.79
4814;BME280;15375;48.540;9.268;2022-09-09T13:49:21;97006.44;;;22.75;50.29
4814;BME280;15375;48.540;9.268;2022-09-09T13:51:50;96997.84;;;22.90;50.15
4814;BME280;15375;48.540;9.268;2022-09-09T13:54:17;97004.63;;;23.06;50.56
4814;BME280;15375;48.540;9.268;2022-09-09T13:56:44;96996.34;;;22.72;51.60
4814;BME280;15375;48.540;9.268;2022-09-09T13:59:12;97002.13;;;22.74;52.69
4814;BME280;15375;48.540;9.268;2022-09-09T14:01:38;97005.44;;;22.73;52.12
4814;BME280;15375;48.540;9.268;2022-09-09T14:04:03;96987.47;;;22.79;53.38
4814;BME280;15375;48.540;9.268;2022-09-09T14:06:30;96986.19;;;22.86;50.99
4814;BME280;15375;48.540;9.268;2022-09-09T14:08:57;96973.03;;;22.92;51.19
4814;BME280;15375;48.540;9.268;2022-09-09T14:11:22;96980.38;;;22.78;51.23
4814;BME280;15375;48.540;9.268;2022-09-09T14:13:48;96975.09;;;22.75;51.10
4814;BME280;15375;48.540;9.268;2022-09-09T14:16:16;96997.03;;;23.06;51.14
4814;BME280;15375;48.540;9.268;2022-09-09T14:18:44;96976.59;;;22.87;50.50
4814;BME280;15375;48.540;9.268;2022-09-09T14:21:10;96970.25;;;23.03;48.49
4814;BME280;15375;48.540;9.268;2022-09-09T14:23:36;96976.81;;;23.00;48.59
4814;BME280;15375;48.540;9.268;2022-09-09T14:26:03;96994.22;;;23.17;48.10
4814;BME280;15375;48.540;9.268;2022-09-09T14:28:29;96994.22;;;23.17;48.03
4814;BME280;15375;48.540;9.268;2022-09-09T14:30:54;96979.56;;;23.22;48.00
4814;BME280;15375;48.540;9.268;2022-09-09T14:33:20;96994.69;;;23.32;49.22
4814;BME280;15375;48.540;9.268;2022-09-09T14:35:45;96945.47;;;22.94;48.45
4814;BME280;15375;48.540;9.268;2022-09-09T14:38:10;96970.03;;;22.90;49.52
4814;BME280;15375;48.540;9.268;2022-09-09T14:40:37;96983.16;;;22.95;49.29
4814;BME280;15375;48.540;9.268;2022-09-09T14:43:04;97007.44;;;22.78;49.03
4814;BME280;15375;48.540;9.268;2022-09-09T14:45:29;97002.09;;;22.30;50.46
4814;BME280;15375;48.540;9.268;2022-09-09T14:47:55;97007.69;;;22.58;49.83
4814;BME280;15375;48.540;9.268;2022-09-09T14:50:22;96987.72;;;22.76;48.55
4814;BME280;15375;48.540;9.268;2022-09-09T14:52:47;96997.06;;;22.95;48.13
4814;BME280;15375;48.540;9.268;2022-09-09T14:55:13;96992.47;;;23.14;48.45
4814;BME280;15375;48.540;9.268;2022-09-09T14:57:38;96977.78;;;23.19;46.47
4814;BME280;15375;48.540;9.268;2022-09-09T15:00:06;96985.69;;;22.88;47.19
4814;BME280;15375;48.540;9.268;2022-09-09T15:02:32;96949.06;;;22.72;47.59
4814;BME280;15375;48.540;9.268;2022-09-09T15:04:58;96977.34;;;22.88;48.43
4814;BME280;15375;48.540;9.268;2022-09-09T15:07:24;96989.16;;;23.21;47.78
4814;BME280;15375;48.540;9.268;2022-09-09T15:09:50;96980.66;;;22.75;47.38
4814;BME280;15375;48.540;9.268;2022-09-09T15:12:15;96987.44;;;22.24;47.31
4814;BME280;15375;48.540;9.268;2022-09-09T15:14:44;96992.47;;;22.09;49.67
4814;BME280;15375;48.540;9.268;2022-09-09T15:17:09;97002.06;;;22.02;49.99
4814;BME280;15375;48.540;9.268;2022-09-09T15:19:34;96988.28;;;21.71;50.30
4814;BME280;15375;48.540;9.268;2022-09-09T15:22:00;96991.31;;;21.68;50.05